Time;durP1;ratioP1;P1;durP2;ratioP2;P2;SDS_P1;SDS_P2;PMS_P1;PMS_P2;Temp;Humidity;BMP_temperature;BMP_pressure;BME280_temperature;BME280_humidity;BME280_pressure;Samples;Min_cycle;Max_cycle;Signal;HPM_P1;HPM_P2
2021/06/20 00:00:19;;;;;;;27.20;25.30;;;;;;;;;;5067658;28;20657;-58
2021/06/20 00:02:45;;;;;;;25.67;23.87;;;;;;;;;;5085225;28;20639;-58
2021/06/20 00:05:13;;;;;;;26.90;24.90;;;;;;;;;;5049529;28;20273;-58
2021/06/20 00:07:41;;;;;;;26.27;24.13;;;;;;;;;;5055501;28;20575;-58
2021/06/20 00:10:08;;;;;;;25.50;23.70;;;;;;;;;;5071588;28;20996;-58
2021/06/20 00:12:34;;;;;;;25.60;23.67;;;;;;;;;;5077209;28;20652;-59
2021/06/20 00:14:59;;;;;;;24.93;23.33;;;;;;;;;;5088867;28;20553;-58
2021/06/20 00:17:24;;;;;;;25.25;23.33;;;;;;;;;;5086822;28;20212;-59
2021/06/20 00:19:49;;;;;;;25.43;23.73;;;;;;;;;;5068762;28;20969;-59
2021/06/20 00:22:14;;;;;;;24.40;22.80;;;;;;;;;;5075077;28;20173;-59
2021/06/20 00:24:40;;;;;;;24.10;22.52;;;;;;;;;;5088382;28;20267;-59
2021/06/20 00:27:05;;;;;;;25.30;23.70;;;;;;;;;;5087583;28;20361;-59
2021/06/20 00:29:30;;;;;;;26.87;25.00;;;;;;;;;;5088980;28;20187;-58
2021/06/20 00:31:56;;;;;;;24.20;22.60;;;;;;;;;;5072455;28;20256;-59
2021/06/20 00:34:21;;;;;;;25.97;24.17;;;;;;;;;;5069094;28;20275;-58
2021/06/20 00:36:47;;;;;;;24.25;22.55;;;;;;;;;;5076699;28;20717;-58
2021/06/20 00:39:12;;;;;;;24.38;22.77;;;;;;;;;;5069062;28;20199;-58
2021/06/20 00:41:38;;;;;;;27.27;24.92;;;;;;;;;;5087354;28;20186;-58
2021/06/20 00:44:03;;;;;;;26.77;24.97;;;;;;;;;;5076997;28;20302;-58
2021/06/20 00:46:29;;;;;;;26.07;24.37;;;;;;;;;;5088631;28;20683;-58
2021/06/20 00:48:54;;;;;;;24.03;22.43;;;;;;;;;;5078729;28;20176;-58
2021/06/20 00:51:19;;;;;;;24.80;23.00;;;;;;;;;;5079625;28;20183;-58
2021/06/20 00:53:44;;;;;;;24.60;22.80;;;;;;;;;;5068351;28;20202;-58
2021/06/20 00:56:11;;;;;;;24.73;23.03;;;;;;;;;;5073190;28;20713;-58
2021/06/20 00:58:36;;;;;;;25.30;23.50;;;;;;;;;;5077436;28;20259;-59
2021/06/20 01:01:02;;;;;;;24.50;22.80;;;;;;;;;;5071513;28;20766;-58
2021/06/20 01:03:27;;;;;;;27.90;25.97;;;;;;;;;;5069046;28;20164;-58
2021/06/20 01:05:52;;;;;;;25.83;24.13;;;;;;;;;;5072877;28;20203;-58
2021/06/20 01:11:21;;;;;;;25.57;23.77;;;;;;;;;;5054942;28;20198;-57
2021/06/20 01:13:46;;;;;;;24.73;23.13;;;;;;;;;;5060972;28;20594;-58
2021/06/20 01:16:12;;;;;;;26.10;24.20;;;;;;;;;;5076166;28;20615;-58
2021/06/20 01:18:37;;;;;;;26.70;24.80;;;;;;;;;;5075347;28;20182;-58
2021/06/20 01:21:02;;;;;;;25.23;23.60;;;;;;;;;;5084474;28;20669;-59
2021/06/20 01:23:28;;;;;;;27.90;25.93;;;;;;;;;;5074346;28;20183;-58
2021/06/20 01:25:55;;;;;;;27.33;25.23;;;;;;;;;;5080493;28;20279;-58
2021/06/20 01:28:25;;;;;;;27.97;26.07;;;;;;;;;;5057863;28;20269;-59
2021/06/20 01:30:57;;;;;;;27.57;25.63;;;;;;;;;;5065418;28;20667;-58
2021/06/20 01:33:22;;;;;;;26.83;24.90;;;;;;;;;;5080247;28;21010;-58
2021/06/20 01:35:47;;;;;;;26.70;24.75;;;;;;;;;;5071108;28;20565;-58
2021/06/20 01:38:12;;;;;;;26.63;24.67;;;;;;;;;;5077016;28;20202;-57
2021/06/20 01:40:38;;;;;;;25.58;23.77;;;;;;;;;;5067503;28;20219;-59
2021/06/20 01:43:03;;;;;;;25.67;23.97;;;;;;;;;;5087399;28;20167;-58
2021/06/20 01:45:30;;;;;;;27.23;25.30;;;;;;;;;;5069212;28;20232;-58
2021/06/20 01:47:56;;;;;;;27.60;25.60;;;;;;;;;;5081027;28;20168;-58
2021/06/20 01:50:21;;;;;;;28.33;26.10;;;;;;;;;;5085970;28;21121;-59
2021/06/20 01:52:47;;;;;;;27.67;25.67;;;;;;;;;;5087340;28;20612;-58
2021/06/20 01:55:14;;;;;;;27.93;25.70;;;;;;;;;;5089874;28;20205;-58
2021/06/20 01:57:40;;;;;;;28.17;26.17;;;;;;;;;;5087397;28;20175;-58
2021/06/20 02:00:09;;;;;;;27.30;25.30;;;;;;;;;;5071894;28;20634;-58
2021/06/20 02:02:35;;;;;;;27.77;25.97;;;;;;;;;;5076266;28;21136;-58
2021/06/20 02:05:00;;;;;;;28.57;26.57;;;;;;;;;;5072922;28;20597;-58
2021/06/20 02:07:25;;;;;;;27.93;25.93;;;;;;;;;;5084275;28;20196;-58
2021/06/20 02:09:51;;;;;;;27.53;25.50;;;;;;;;;;5073405;28;20180;-57
2021/06/20 02:12:16;;;;;;;27.73;25.73;;;;;;;;;;5071670;28;20178;-58
2021/06/20 02:14:42;;;;;;;27.87;25.77;;;;;;;;;;5087517;28;20246;-58
2021/06/20 02:17:26;;;;;;;27.13;25.23;;;;;;;;;;5073938;28;20204;-58
2021/06/20 02:19:53;;;;;;;26.73;24.73;;;;;;;;;;5080194;28;20710;-59
2021/06/20 02:22:19;;;;;;;28.80;26.67;;;;;;;;;;5072867;28;20587;-59
2021/06/20 02:24:44;;;;;;;27.80;25.80;;;;;;;;;;5071635;28;20569;-58
2021/06/20 02:27:12;;;;;;;27.73;25.43;;;;;;;;;;5084160;28;20183;-58
2021/06/20 02:29:37;;;;;;;27.27;25.37;;;;;;;;;;5070990;28;20187;-58
2021/06/20 02:32:03;;;;;;;24.33;22.63;;;;;;;;;;5061501;28;20662;-58
2021/06/20 02:34:29;;;;;;;24.50;22.87;;;;;;;;;;5057997;28;20649;-58
2021/06/20 02:36:54;;;;;;;25.20;23.37;;;;;;;;;;5078995;28;21033;-57
2021/06/20 02:39:19;;;;;;;24.50;22.90;;;;;;;;;;5065342;28;20204;-59
2021/06/20 02:41:46;;;;;;;26.15;24.17;;;;;;;;;;5071129;28;20531;-58
2021/06/20 02:44:11;;;;;;;24.43;22.73;;;;;;;;;;5064914;28;20641;-59
2021/06/20 02:46:37;;;;;;;23.67;22.00;;;;;;;;;;5051599;28;20630;-59
2021/06/20 02:49:02;;;;;;;23.80;22.00;;;;;;;;;;5059448;28;20645;-59
2021/06/20 02:51:29;;;;;;;25.15;23.25;;;;;;;;;;5074389;28;20568;-59
2021/06/20 02:53:54;;;;;;;23.77;22.07;;;;;;;;;;5072584;28;20190;-58
2021/06/20 02:56:19;;;;;;;23.70;22.10;;;;;;;;;;5066583;28;20627;-59
2021/06/20 02:58:44;;;;;;;26.65;24.33;;;;;;;;;;5074213;28;20178;-59
2021/06/20 03:01:10;;;;;;;25.00;23.20;;;;;;;;;;5064747;28;20210;-59
2021/06/20 03:03:35;;;;;;;25.73;23.83;;;;;;;;;;5081893;28;20170;-59
2021/06/20 03:06:02;;;;;;;26.70;24.80;;;;;;;;;;5071170;28;20297;-59
2021/06/20 03:08:27;;;;;;;25.43;23.33;;;;;;;;;;5065596;28;20181;-60
2021/06/20 03:10:52;;;;;;;24.48;22.75;;;;;;;;;;5077145;28;20603;-59
2021/06/20 03:13:17;;;;;;;26.80;24.90;;;;;;;;;;5068963;28;20188;-59
2021/06/20 03:15:43;;;;;;;24.40;22.70;;;;;;;;;;5059978;28;20183;-59
2021/06/20 03:18:08;;;;;;;25.40;23.60;;;;;;;;;;5073442;28;20193;-59
2021/06/20 03:20:33;;;;;;;24.77;22.80;;;;;;;;;;5052780;28;20266;-59
2021/06/20 03:22:58;;;;;;;24.80;23.20;;;;;;;;;;5063221;28;20171;-60
2021/06/20 03:25:24;;;;;;;24.58;22.88;;;;;;;;;;5070028;28;20181;-60
2021/06/20 03:27:49;;;;;;;23.47;21.87;;;;;;;;;;5088334;28;20174;-59
2021/06/20 03:30:14;;;;;;;25.30;23.60;;;;;;;;;;5058972;28;20184;-60
2021/06/20 03:32:40;;;;;;;24.47;22.67;;;;;;;;;;5053561;28;20715;-61
2021/06/20 03:35:05;;;;;;;23.73;22.13;;;;;;;;;;5068163;28;20172;-60
2021/06/20 03:37:30;;;;;;;25.53;23.73;;;;;;;;;;5069189;28;20651;-61
2021/06/20 03:39:55;;;;;;;23.90;22.13;;;;;;;;;;5065440;28;20898;-60
2021/06/20 03:42:20;;;;;;;23.88;22.25;;;;;;;;;;5069917;28;20172;-60
2021/06/20 03:44:46;;;;;;;23.63;21.88;;;;;;;;;;5054989;28;20175;-60
2021/06/20 03:47:11;;;;;;;23.60;21.90;;;;;;;;;;5068688;28;20602;-60
2021/06/20 03:49:36;;;;;;;23.77;21.95;;;;;;;;;;5070293;28;20176;-60
2021/06/20 03:52:02;;;;;;;22.83;21.10;;;;;;;;;;5082190;28;20264;-60
2021/06/20 03:54:27;;;;;;;24.93;23.23;;;;;;;;;;5064282;28;20215;-60
2021/06/20 03:56:53;;;;;;;24.40;22.70;;;;;;;;;;5050287;28;20631;-60
2021/06/20 03:59:19;;;;;;;27.10;25.10;;;;;;;;;;5065378;28;20303;-60
2021/06/20 04:01:44;;;;;;;25.53;23.77;;;;;;;;;;5058309;28;21136;-60
2021/06/20 04:04:09;;;;;;;25.83;23.93;;;;;;;;;;5064014;28;20190;-61
2021/06/20 04:06:35;;;;;;;24.47;22.77;;;;;;;;;;5053582;28;20179;-60
2021/06/20 04:09:00;;;;;;;22.70;21.20;;;;;;;;;;5065352;28;20161;-60
2021/06/20 04:11:26;;;;;;;22.60;20.88;;;;;;;;;;5060298;28;20182;-61
2021/06/20 04:13:51;;;;;;;22.40;20.83;;;;;;;;;;5068128;28;20260;-61
2021/06/20 04:16:16;;;;;;;21.93;20.27;;;;;;;;;;5049276;28;20722;-61
2021/06/20 04:18:42;;;;;;;20.60;19.30;;;;;;;;;;5075061;28;20198;-61
2021/06/20 04:21:07;;;;;;;21.80;20.33;;;;;;;;;;5065161;28;20207;-61
2021/06/20 04:23:32;;;;;;;20.65;19.30;;;;;;;;;;5069987;28;20189;-61
2021/06/20 04:25:57;;;;;;;20.80;19.20;;;;;;;;;;5054256;28;20817;-62
2021/06/20 04:28:22;;;;;;;21.75;20.35;;;;;;;;;;5068384;28;20239;-62
2021/06/20 04:30:53;;;;;;;19.43;18.10;;;;;;;;;;5069606;28;20190;-62
2021/06/20 04:33:18;;;;;;;19.73;18.43;;;;;;;;;;5057816;28;20233;-61
2021/06/20 04:35:43;;;;;;;20.27;18.87;;;;;;;;;;5064211;28;20595;-61
2021/06/20 04:38:08;;;;;;;20.30;19.00;;;;;;;;;;5067910;28;20508;-61
2021/06/20 04:40:34;;;;;;;20.07;18.77;;;;;;;;;;5060901;28;20207;-61
2021/06/20 04:43:09;;;;;;;20.20;18.80;;;;;;;;;;5060245;28;20804;-60
2021/06/20 04:45:34;;;;;;;19.87;18.50;;;;;;;;;;5062170;28;20591;-60
2021/06/20 04:47:59;;;;;;;19.30;18.02;;;;;;;;;;5068670;28;20589;-60
2021/06/20 04:50:24;;;;;;;19.10;17.83;;;;;;;;;;5055764;28;20704;-60
2021/06/20 04:52:50;;;;;;;18.60;17.13;;;;;;;;;;5057788;28;20631;-60
2021/06/20 04:55:15;;;;;;;19.03;17.83;;;;;;;;;;5056631;28;20726;-60
2021/06/20 04:57:40;;;;;;;17.13;16.03;;;;;;;;;;5053569;28;20792;-60
2021/06/20 05:00:07;;;;;;;17.90;16.60;;;;;;;;;;5075023;28;20225;-60
2021/06/20 05:02:32;;;;;;;17.03;15.93;;;;;;;;;;5061638;28;20172;-60
2021/06/20 05:04:57;;;;;;;18.43;17.10;;;;;;;;;;5064263;28;20912;-60
2021/06/20 05:07:22;;;;;;;18.10;17.00;;;;;;;;;;5070457;28;20191;-60
2021/06/20 05:09:48;;;;;;;18.17;16.87;;;;;;;;;;5067616;28;20614;-61
2021/06/20 05:12:13;;;;;;;17.50;16.30;;;;;;;;;;5062098;28;20845;-61
2021/06/20 05:14:39;;;;;;;17.17;15.87;;;;;;;;;;5059354;28;20191;-61
2021/06/20 05:17:04;;;;;;;16.77;15.77;;;;;;;;;;5056599;28;20542;-61
2021/06/20 05:19:29;;;;;;;16.83;15.67;;;;;;;;;;5067467;28;20352;-61
2021/06/20 05:21:54;;;;;;;16.70;15.60;;;;;;;;;;5056895;28;20180;-61
2021/06/20 05:24:20;;;;;;;15.87;14.97;;;;;;;;;;5069597;28;20187;-61
2021/06/20 05:26:45;;;;;;;15.83;14.83;;;;;;;;;;5052438;28;20246;-61
2021/06/20 05:29:10;;;;;;;16.30;15.03;;;;;;;;;;5072293;28;20185;-61
2021/06/20 05:31:35;;;;;;;14.93;14.02;;;;;;;;;;5075954;28;20269;-62
2021/06/20 05:34:01;;;;;;;14.80;14.00;;;;;;;;;;5063271;28;20188;-61
2021/06/20 05:36:26;;;;;;;14.17;13.33;;;;;;;;;;5048151;28;20188;-60
2021/06/20 05:38:51;;;;;;;16.17;14.73;;;;;;;;;;5060040;28;20637;-61
2021/06/20 05:41:16;;;;;;;14.63;13.73;;;;;;;;;;5067395;28;20684;-61
2021/06/20 05:43:41;;;;;;;14.13;13.30;;;;;;;;;;5053925;28;20637;-60
2021/06/20 05:46:07;;;;;;;14.30;13.50;;;;;;;;;;5056785;28;20220;-61
2021/06/20 05:48:32;;;;;;;15.00;14.10;;;;;;;;;;5059758;28;20183;-60
2021/06/20 05:50:57;;;;;;;13.70;12.80;;;;;;;;;;5047439;28;20176;-61
2021/06/20 05:53:22;;;;;;;13.73;12.93;;;;;;;;;;5058304;28;20207;-61
2021/06/20 05:55:47;;;;;;;14.30;13.40;;;;;;;;;;5061820;28;20298;-61
2021/06/20 05:58:13;;;;;;;13.37;12.57;;;;;;;;;;5065429;28;20255;-62
2021/06/20 06:00:38;;;;;;;13.50;12.70;;;;;;;;;;5063785;28;20207;-62
2021/06/20 06:03:03;;;;;;;13.50;12.70;;;;;;;;;;5063002;28;20264;-61
2021/06/20 06:05:28;;;;;;;13.50;12.70;;;;;;;;;;5066913;28;20172;-61
2021/06/20 06:07:55;;;;;;;13.50;12.60;;;;;;;;;;5059339;28;20545;-61
2021/06/20 06:10:20;;;;;;;14.33;13.43;;;;;;;;;;5053914;28;20253;-61
2021/06/20 06:12:45;;;;;;;14.13;12.97;;;;;;;;;;5047774;28;21143;-61
2021/06/20 06:15:11;;;;;;;13.57;12.67;;;;;;;;;;5048148;28;20187;-59
2021/06/20 06:17:36;;;;;;;13.63;12.83;;;;;;;;;;5053036;28;20187;-59
2021/06/20 06:20:02;;;;;;;12.50;11.70;;;;;;;;;;5056840;28;20233;-59
2021/06/20 06:22:27;;;;;;;13.00;12.20;;;;;;;;;;5063657;28;20178;-59
2021/06/20 06:24:54;;;;;;;13.90;13.00;;;;;;;;;;5058537;28;20232;-59
2021/06/20 06:27:20;;;;;;;13.83;13.03;;;;;;;;;;5063864;28;20255;-59
2021/06/20 06:29:45;;;;;;;14.30;13.30;;;;;;;;;;5072904;28;21121;-60
2021/06/20 06:32:10;;;;;;;14.18;13.27;;;;;;;;;;5052753;28;20649;-59
2021/06/20 06:34:36;;;;;;;13.57;12.50;;;;;;;;;;5050998;28;20317;-59
2021/06/20 06:37:02;;;;;;;13.90;13.00;;;;;;;;;;5055710;28;20174;-59
2021/06/20 06:39:27;;;;;;;12.70;12.00;;;;;;;;;;5058784;28;20630;-59
2021/06/20 06:41:53;;;;;;;12.80;12.07;;;;;;;;;;5048758;28;20186;-59
2021/06/20 06:44:18;;;;;;;14.00;13.20;;;;;;;;;;5065551;28;20185;-59
2021/06/20 06:46:43;;;;;;;13.00;12.20;;;;;;;;;;5047906;28;20187;-59
2021/06/20 06:49:09;;;;;;;12.30;11.60;;;;;;;;;;5056867;28;20856;-59
2021/06/20 06:51:34;;;;;;;12.88;11.98;;;;;;;;;;5059314;28;20178;-59
2021/06/20 06:53:59;;;;;;;13.07;12.13;;;;;;;;;;5057365;28;20202;-59
2021/06/20 06:56:24;;;;;;;13.17;12.17;;;;;;;;;;5044749;28;20223;-61
2021/06/20 06:58:49;;;;;;;12.77;11.98;;;;;;;;;;5054095;28;20261;-62
2021/06/20 07:01:15;;;;;;;13.82;12.93;;;;;;;;;;5058494;28;20575;-59
2021/06/20 07:03:40;;;;;;;12.70;11.80;;;;;;;;;;5062509;28;20174;-59
2021/06/20 07:06:05;;;;;;;12.70;12.00;;;;;;;;;;5077816;28;20175;-59
2021/06/20 07:08:30;;;;;;;13.57;12.43;;;;;;;;;;5066708;28;20578;-59
2021/06/20 07:10:55;;;;;;;12.17;11.37;;;;;;;;;;5066471;28;20262;-59
2021/06/20 07:13:20;;;;;;;12.93;12.13;;;;;;;;;;5063937;28;20213;-59
2021/06/20 07:15:46;;;;;;;13.38;12.57;;;;;;;;;;5054560;28;20184;-59
2021/06/20 07:18:11;;;;;;;12.82;12.02;;;;;;;;;;5051188;28;20650;-59
2021/06/20 07:20:37;;;;;;;13.60;12.50;;;;;;;;;;5064137;28;20372;-59
2021/06/20 07:23:02;;;;;;;12.95;11.95;;;;;;;;;;5051030;28;20628;-59
2021/06/20 07:25:27;;;;;;;13.30;12.33;;;;;;;;;;5055630;28;20258;-59
2021/06/20 07:27:52;;;;;;;13.90;13.10;;;;;;;;;;5064919;28;20173;-59
2021/06/20 07:30:19;;;;;;;13.67;12.80;;;;;;;;;;5060936;28;20184;-60
2021/06/20 07:32:45;;;;;;;12.93;12.23;;;;;;;;;;5066486;28;20183;-60
2021/06/20 07:35:10;;;;;;;12.90;11.90;;;;;;;;;;5069873;28;21274;-60
2021/06/20 07:37:36;;;;;;;12.30;11.50;;;;;;;;;;5055534;28;20669;-58
2021/06/20 07:40:03;;;;;;;13.37;12.43;;;;;;;;;;5060932;28;20211;-60
2021/06/20 07:42:28;;;;;;;14.00;13.10;;;;;;;;;;5056653;28;20658;-58
2021/06/20 07:44:53;;;;;;;14.05;12.93;;;;;;;;;;5058456;28;21192;-58
2021/06/20 07:47:18;;;;;;;13.70;12.80;;;;;;;;;;5060217;28;20188;-58
2021/06/20 07:49:43;;;;;;;13.35;12.30;;;;;;;;;;5046897;28;20171;-61
2021/06/20 07:52:08;;;;;;;13.20;12.37;;;;;;;;;;5059955;28;20805;-58
2021/06/20 07:54:34;;;;;;;12.70;11.90;;;;;;;;;;5065408;28;20223;-58
2021/06/20 07:56:59;;;;;;;12.30;11.53;;;;;;;;;;5065625;28;20176;-59
2021/06/20 07:59:24;;;;;;;13.00;12.10;;;;;;;;;;5057803;28;20231;-58
2021/06/20 08:01:49;;;;;;;12.87;12.10;;;;;;;;;;5045658;28;20171;-61
2021/06/20 08:04:14;;;;;;;12.10;11.30;;;;;;;;;;5041769;28;20164;-59
2021/06/20 08:06:40;;;;;;;12.67;11.87;;;;;;;;;;5039895;28;20182;-60
2021/06/20 08:09:05;;;;;;;12.43;11.63;;;;;;;;;;5058796;28;20200;-57
2021/06/20 08:11:31;;;;;;;13.47;12.67;;;;;;;;;;5064942;28;20179;-58
2021/06/20 08:14:00;;;;;;;13.00;12.10;;;;;;;;;;5065328;28;20167;-57
2021/06/20 08:16:25;;;;;;;13.50;12.53;;;;;;;;;;5063174;28;20657;-59
2021/06/20 08:18:50;;;;;;;12.40;11.60;;;;;;;;;;5060742;28;20685;-58
2021/06/20 08:21:16;;;;;;;13.20;12.10;;;;;;;;;;5059297;28;20234;-58
2021/06/20 08:23:41;;;;;;;13.07;12.17;;;;;;;;;;5060930;28;20184;-60
2021/06/20 08:26:06;;;;;;;12.87;12.00;;;;;;;;;;5063434;28;20255;-60
2021/06/20 08:28:32;;;;;;;12.90;12.10;;;;;;;;;;5064540;28;20176;-60
2021/06/20 08:30:57;;;;;;;12.53;11.83;;;;;;;;;;5063365;28;20179;-60
2021/06/20 08:33:23;;;;;;;12.67;11.80;;;;;;;;;;5062934;28;20681;-60
2021/06/20 08:35:48;;;;;;;13.00;12.20;;;;;;;;;;5062597;28;20171;-58
2021/06/20 08:38:13;;;;;;;14.73;13.68;;;;;;;;;;5056731;28;20180;-58
2021/06/20 08:40:41;;;;;;;12.50;11.80;;;;;;;;;;5039237;28;20231;-58
2021/06/20 08:43:06;;;;;;;13.40;12.53;;;;;;;;;;5060654;28;20221;-60
2021/06/20 08:45:31;;;;;;;12.57;11.88;;;;;;;;;;5064475;28;20594;-60
2021/06/20 08:47:57;;;;;;;13.63;12.83;;;;;;;;;;5063741;28;20171;-60
2021/06/20 08:50:22;;;;;;;13.00;12.20;;;;;;;;;;5057262;28;20205;-60
2021/06/20 08:52:51;;;;;;;13.35;12.23;;;;;;;;;;5058510;28;20260;-60
2021/06/20 08:55:17;;;;;;;12.73;11.93;;;;;;;;;;5060114;28;20231;-60
2021/06/20 08:57:43;;;;;;;12.55;11.85;;;;;;;;;;5054063;28;20780;-60
2021/06/20 09:00:11;;;;;;;13.37;12.50;;;;;;;;;;5042495;28;20276;-60
2021/06/20 09:02:36;;;;;;;11.80;11.07;;;;;;;;;;5044010;28;20574;-60
2021/06/20 09:05:03;;;;;;;13.83;12.83;;;;;;;;;;5040777;28;20927;-60
2021/06/20 09:07:29;;;;;;;12.30;11.50;;;;;;;;;;5052492;28;20175;-59
2021/06/20 09:09:54;;;;;;;12.20;11.50;;;;;;;;;;5059144;28;20573;-60
2021/06/20 09:12:19;;;;;;;12.25;11.55;;;;;;;;;;5064070;28;20956;-59
2021/06/20 09:14:46;;;;;;;12.52;11.82;;;;;;;;;;5057858;28;20172;-60
2021/06/20 09:17:12;;;;;;;11.67;10.87;;;;;;;;;;5042247;28;20535;-60
2021/06/20 09:19:37;;;;;;;11.77;11.17;;;;;;;;;;5055211;28;20660;-60
2021/06/20 09:22:06;;;;;;;11.70;11.00;;;;;;;;;;5059934;28;20716;-60
2021/06/20 09:24:32;;;;;;;12.20;11.40;;;;;;;;;;5060362;28;20172;-60
2021/06/20 09:26:58;;;;;;;12.10;11.30;;;;;;;;;;5064093;28;20585;-61
2021/06/20 09:29:30;;;;;;;11.93;11.23;;;;;;;;;;5060525;28;20622;-59
2021/06/20 09:31:55;;;;;;;12.03;11.23;;;;;;;;;;5062213;28;20589;-60
2021/06/20 09:34:21;;;;;;;11.53;10.83;;;;;;;;;;5058625;28;20593;-60
2021/06/20 09:36:46;;;;;;;11.23;10.43;;;;;;;;;;5060336;28;20182;-60
2021/06/20 09:39:21;;;;;;;10.93;10.33;;;;;;;;;;5060392;28;20180;-60
2021/06/20 09:42:05;;;;;;;11.10;10.50;;;;;;;;;;5063170;28;20501;-59
2021/06/20 09:44:38;;;;;;;11.50;10.80;;;;;;;;;;5061018;28;20601;-59
2021/06/20 09:47:04;;;;;;;11.20;10.50;;;;;;;;;;5063151;28;21119;-60
2021/06/20 09:49:30;;;;;;;10.20;9.60;;;;;;;;;;5057617;28;21469;-60
2021/06/20 09:51:55;;;;;;;11.23;10.33;;;;;;;;;;5071569;28;20688;-60
2021/06/20 09:54:31;;;;;;;10.80;10.17;;;;;;;;;;5064464;28;20190;-59
2021/06/20 09:56:56;;;;;;;9.93;9.30;;;;;;;;;;5070215;28;20230;-59
2021/06/20 09:59:26;;;;;;;9.80;9.20;;;;;;;;;;5059327;28;20646;-57
2021/06/20 10:01:51;;;;;;;9.50;8.80;;;;;;;;;;5069345;28;20202;-58
2021/06/20 10:04:16;;;;;;;10.50;9.70;;;;;;;;;;5069909;28;20605;-59
2021/06/20 10:06:41;;;;;;;10.53;9.50;;;;;;;;;;5062509;28;20179;-59
2021/06/20 10:09:07;;;;;;;9.40;8.40;;;;;;;;;;5055038;28;20175;-58
2021/06/20 10:11:32;;;;;;;9.90;8.47;;;;;;;;;;5053770;28;20187;-59
2021/06/20 10:13:57;;;;;;;10.80;9.10;;;;;;;;;;5053199;28;20170;-58
2021/06/20 10:16:26;;;;;;;10.10;8.75;;;;;;;;;;5074194;28;20179;-59
2021/06/20 10:18:56;;;;;;;10.00;9.20;;;;;;;;;;5068566;28;20171;-59
2021/06/20 10:21:32;;;;;;;11.93;9.47;;;;;;;;;;5067486;28;20641;-58
2021/06/20 10:24:04;;;;;;;9.63;8.63;;;;;;;;;;5077645;28;20589;-58
2021/06/20 10:26:29;;;;;;;9.63;8.87;;;;;;;;;;5066656;28;20932;-58
2021/06/20 10:28:54;;;;;;;11.83;8.77;;;;;;;;;;5061240;28;20593;-58
2021/06/20 10:31:31;;;;;;;11.20;8.23;;;;;;;;;;5072634;28;20674;-58
2021/06/20 10:33:57;;;;;;;9.60;8.80;;;;;;;;;;5046613;28;20176;-58
2021/06/20 10:36:22;;;;;;;11.40;8.80;;;;;;;;;;5071173;28;20696;-59
2021/06/20 10:38:47;;;;;;;10.70;9.60;;;;;;;;;;5067774;28;20273;-59
2021/06/20 10:41:25;;;;;;;12.82;8.80;;;;;;;;;;5065128;28;20213;-58
2021/06/20 10:43:57;;;;;;;12.63;8.17;;;;;;;;;;5073198;28;20181;-59
2021/06/20 10:46:23;;;;;;;13.37;8.27;;;;;;;;;;5078317;28;20905;-58
2021/06/20 10:48:48;;;;;;;13.50;8.90;;;;;;;;;;5059564;28;20605;-60
2021/06/20 10:51:17;;;;;;;9.90;8.82;;;;;;;;;;5086895;28;20648;-59
2021/06/20 10:53:43;;;;;;;13.37;9.43;;;;;;;;;;5070158;28;20301;-59
2021/06/20 10:56:18;;;;;;;12.23;8.80;;;;;;;;;;5074217;28;20656;-59
2021/06/20 10:58:47;;;;;;;11.23;8.20;;;;;;;;;;5067211;28;20614;-59
2021/06/20 11:01:14;;;;;;;16.10;9.07;;;;;;;;;;5067170;28;20741;-58
2021/06/20 11:03:39;;;;;;;14.57;8.43;;;;;;;;;;5072172;28;20586;-59
2021/06/20 11:06:05;;;;;;;13.20;9.63;;;;;;;;;;5084529;28;21054;-59
2021/06/20 11:08:36;;;;;;;10.20;8.53;;;;;;;;;;5085416;28;20182;-58
2021/06/20 11:11:05;;;;;;;15.17;9.40;;;;;;;;;;5068907;28;20191;-58
2021/06/20 11:13:30;;;;;;;20.20;9.40;;;;;;;;;;5067336;28;20610;-59
2021/06/20 11:16:13;;;;;;;21.67;8.80;;;;;;;;;;5071763;28;21096;-59
2021/06/20 11:18:38;;;;;;;14.13;9.50;;;;;;;;;;5067322;28;20207;-58
2021/06/20 11:21:03;;;;;;;12.80;9.10;;;;;;;;;;5066094;28;20769;-59
2021/06/20 11:23:31;;;;;;;15.23;9.07;;;;;;;;;;5064764;28;20527;-59
2021/06/20 11:25:58;;;;;;;14.43;8.90;;;;;;;;;;5067591;28;20259;-60
2021/06/20 11:28:23;;;;;;;12.40;8.77;;;;;;;;;;5056630;28;20637;-59
2021/06/20 11:30:49;;;;;;;13.17;9.50;;;;;;;;;;5058563;28;20634;-59
2021/06/20 11:33:21;;;;;;;12.37;8.20;;;;;;;;;;5066444;28;20191;-60
2021/06/20 11:35:50;;;;;;;17.10;9.00;;;;;;;;;;5066811;28;20580;-60
2021/06/20 11:38:26;;;;;;;17.97;11.23;;;;;;;;;;5066952;28;21473;-60
2021/06/20 11:40:53;;;;;;;14.50;11.30;;;;;;;;;;5058888;28;20676;-59
2021/06/20 11:43:18;;;;;;;14.90;11.40;;;;;;;;;;5056561;28;20589;-59
2021/06/20 11:45:43;;;;;;;12.43;11.20;;;;;;;;;;5065423;28;20671;-59
2021/06/20 11:48:09;;;;;;;12.43;11.20;;;;;;;;;;5053779;28;20685;-59
2021/06/20 11:50:36;;;;;;;12.30;11.00;;;;;;;;;;5052024;28;20257;-60
2021/06/20 11:53:10;;;;;;;13.97;10.77;;;;;;;;;;5069079;28;20202;-59
2021/06/20 11:55:36;;;;;;;14.00;11.07;;;;;;;;;;5062382;28;20644;-59
2021/06/20 11:58:02;;;;;;;12.40;11.13;;;;;;;;;;5059619;28;20590;-59
2021/06/20 12:00:27;;;;;;;15.77;10.93;;;;;;;;;;5048366;28;20649;-59
2021/06/20 12:03:09;;;;;;;12.60;10.67;;;;;;;;;;5061201;28;20605;-59
2021/06/20 12:05:42;;;;;;;14.30;10.53;;;;;;;;;;5076257;28;20183;-60
2021/06/20 12:08:07;;;;;;;14.47;10.30;;;;;;;;;;5066204;28;20598;-59
2021/06/20 12:10:33;;;;;;;11.73;10.40;;;;;;;;;;5060069;28;20600;-60
2021/06/20 12:13:05;;;;;;;13.90;10.20;;;;;;;;;;5063343;28;20172;-59
2021/06/20 12:15:31;;;;;;;12.90;10.03;;;;;;;;;;5039186;28;20717;-59
2021/06/20 12:17:57;;;;;;;12.57;9.67;;;;;;;;;;5054037;28;20601;-60
2021/06/20 12:20:29;;;;;;;14.97;9.87;;;;;;;;;;5045903;28;20711;-60
2021/06/20 12:22:54;;;;;;;12.07;9.10;;;;;;;;;;5045746;28;20168;-59
2021/06/20 12:25:19;;;;;;;13.83;9.60;;;;;;;;;;5047191;28;20605;-59
2021/06/20 12:27:44;;;;;;;18.20;10.20;;;;;;;;;;5060771;28;20233;-59
2021/06/20 12:30:13;;;;;;;13.07;9.00;;;;;;;;;;5051584;28;20184;-59
2021/06/20 12:32:38;;;;;;;20.23;9.90;;;;;;;;;;5051413;28;20175;-59
2021/06/20 12:35:03;;;;;;;11.80;9.90;;;;;;;;;;5054190;28;20599;-60
2021/06/20 12:37:37;;;;;;;14.70;9.47;;;;;;;;;;5042429;28;20574;-59
2021/06/20 12:40:08;;;;;;;16.43;10.00;;;;;;;;;;5040910;28;20219;-60
2021/06/20 12:42:42;;;;;;;14.00;10.03;;;;;;;;;;5045871;28;20650;-59
2021/06/20 12:45:16;;;;;;;16.50;8.50;;;;;;;;;;5062487;28;20764;-60
2021/06/20 12:47:41;;;;;;;24.90;8.97;;;;;;;;;;5048795;28;20594;-60
2021/06/20 12:50:07;;;;;;;16.07;8.77;;;;;;;;;;5044822;28;20770;-60
2021/06/20 12:52:36;;;;;;;24.13;9.47;;;;;;;;;;5041479;28;20686;-60
2021/06/20 12:55:01;;;;;;;17.97;9.00;;;;;;;;;;5061706;28;20231;-60
2021/06/20 12:57:29;;;;;;;12.40;9.33;;;;;;;;;;5046681;28;20660;-60
2021/06/20 12:59:55;;;;;;;15.83;8.53;;;;;;;;;;5043742;28;20207;-60
2021/06/20 13:02:22;;;;;;;16.07;8.70;;;;;;;;;;5058085;28;20598;-60
2021/06/20 13:04:48;;;;;;;15.97;9.43;;;;;;;;;;5048155;28;20705;-60
2021/06/20 13:07:13;;;;;;;16.47;9.00;;;;;;;;;;5041052;28;20685;-60
2021/06/20 13:09:38;;;;;;;14.60;8.47;;;;;;;;;;5061835;28;20658;-60
2021/06/20 13:12:03;;;;;;;12.75;8.38;;;;;;;;;;5060321;28;20190;-60
2021/06/20 13:14:29;;;;;;;16.03;9.37;;;;;;;;;;5061582;28;20200;-60
2021/06/20 13:16:55;;;;;;;15.17;9.10;;;;;;;;;;5043638;28;20686;-59
2021/06/20 13:19:20;;;;;;;13.10;8.83;;;;;;;;;;5060733;28;20536;-59
2021/06/20 13:21:47;;;;;;;22.10;10.57;;;;;;;;;;5062145;28;20178;-60
2021/06/20 13:24:13;;;;;;;16.70;10.77;;;;;;;;;;5042417;28;20176;-60
2021/06/20 13:26:39;;;;;;;11.50;9.17;;;;;;;;;;5058159;28;20601;-60
2021/06/20 13:29:04;;;;;;;14.90;10.70;;;;;;;;;;5062535;28;20268;-60
2021/06/20 13:31:29;;;;;;;11.07;9.97;;;;;;;;;;5056395;28;20314;-60
2021/06/20 13:33:56;;;;;;;12.60;11.03;;;;;;;;;;5041405;28;20179;-60
2021/06/20 13:36:22;;;;;;;15.60;10.90;;;;;;;;;;5050126;28;20184;-60
2021/06/20 13:38:47;;;;;;;14.27;10.90;;;;;;;;;;5064048;28;20573;-60
2021/06/20 13:41:12;;;;;;;13.40;10.57;;;;;;;;;;5061133;28;20203;-61
2021/06/20 13:43:37;;;;;;;16.30;11.47;;;;;;;;;;5051901;28;20680;-61
2021/06/20 13:46:02;;;;;;;13.90;11.00;;;;;;;;;;5054857;28;20646;-60
2021/06/20 13:48:28;;;;;;;21.53;10.90;;;;;;;;;;5038360;28;20434;-59
2021/06/20 13:50:53;;;;;;;12.30;10.60;;;;;;;;;;5043382;28;20222;-61
2021/06/20 13:53:18;;;;;;;13.97;10.77;;;;;;;;;;5043417;28;20266;-59
2021/06/20 13:55:43;;;;;;;12.50;11.20;;;;;;;;;;5040801;28;20308;-60
2021/06/20 13:58:08;;;;;;;14.07;10.75;;;;;;;;;;5048314;28;20183;-60
2021/06/20 14:00:33;;;;;;;19.00;11.07;;;;;;;;;;5055862;28;20272;-60
2021/06/20 14:02:59;;;;;;;15.97;11.00;;;;;;;;;;5058041;28;20538;-60
2021/06/20 14:05:28;;;;;;;17.70;10.87;;;;;;;;;;5061300;28;20649;-60
2021/06/20 14:07:53;;;;;;;15.20;10.60;;;;;;;;;;5063429;28;20182;-61
2021/06/20 14:10:18;;;;;;;14.77;10.20;;;;;;;;;;5060899;28;20573;-60
2021/06/20 14:12:44;;;;;;;19.50;10.73;;;;;;;;;;5055544;28;20179;-59
2021/06/20 14:15:09;;;;;;;14.93;10.00;;;;;;;;;;5065928;28;20718;-59